Time;durP1;ratioP1;P1;durP2;ratioP2;P2;SDS_P1;SDS_P2;PMS_P1;PMS_P2;Temp;Humidity;BMP_temperature;BMP_pressure;BME280_temperature;BME280_humidity;BME280_pressure;Samples;Min_cycle;Max_cycle;Signal;HPM_P1;HPM_P2
2022/04/03 00:00:56;;;;;;;10.60;8.43;;;2.30;1.00;2.80;100745.00;;;;5120671;28;20462;-81
2022/04/03 00:03:24;;;;;;;8.40;7.60;;;2.40;1.00;2.80;100760.00;;;;5127830;28;20480;-81
2022/04/03 00:05:54;;;;;;;8.37;7.50;;;2.40;1.00;2.70;100756.00;;;;5127665;28;20470;-83
2022/04/03 00:08:22;;;;;;;9.30;8.37;;;2.40;1.00;2.80;100760.00;;;;5105118;28;20464;-81
2022/04/03 00:10:50;;;;;;;9.70;8.13;;;2.40;1.00;2.80;100749.00;;;;5102315;28;20794;-81
2022/04/03 00:13:19;;;;;;;8.97;8.07;;;2.40;1.00;2.80;100758.00;;;;5102369;28;20458;-81
2022/04/03 00:15:47;;;;;;;9.10;8.20;;;2.40;1.00;2.60;100758.00;;;;5103051;28;20558;-81
2022/04/03 00:18:16;;;;;;;9.83;7.73;;;2.40;1.00;2.60;100754.00;;;;5107650;28;20521;-81
2022/04/03 00:20:46;;;;;;;8.90;7.63;;;2.30;1.00;2.50;100757.00;;;;5110330;28;20512;-81
2022/04/03 00:23:16;;;;;;;8.73;7.83;;;2.30;1.00;2.50;100765.00;;;;5106158;28;20474;-82
2022/04/03 00:25:44;;;;;;;9.03;8.13;;;2.30;1.00;2.60;100752.00;;;;5117036;28;20490;-81
2022/04/03 00:28:12;;;;;;;9.20;8.10;;;2.20;1.00;2.60;100760.00;;;;5113759;28;21075;-81
2022/04/03 00:30:42;;;;;;;9.10;7.13;;;2.30;1.00;2.60;100760.00;;;;5105484;28;20467;-81
2022/04/03 00:33:12;;;;;;;11.03;8.03;;;2.30;1.00;2.60;100759.00;;;;5118347;27;20453;-81
2022/04/03 00:35:40;;;;;;;10.20;8.00;;;2.30;1.00;2.60;100746.00;;;;5103074;28;20484;-81
2022/04/03 00:38:08;;;;;;;10.03;8.17;;;2.40;1.00;2.70;100763.00;;;;5101537;28;20456;-81
2022/04/03 00:40:38;;;;;;;8.20;7.40;;;2.40;1.00;2.70;100755.00;;;;5102602;28;20456;-81
2022/04/03 00:43:08;;;;;;;8.93;8.03;;;2.40;1.00;2.70;100756.00;;;;5101714;28;20466;-81
2022/04/03 00:45:37;;;;;;;10.83;7.83;;;2.40;1.00;2.60;100756.00;;;;5103212;28;20468;-81
2022/04/03 00:48:07;;;;;;;11.27;7.57;;;2.40;1.00;2.70;100765.00;;;;5100038;28;20457;-80
2022/04/03 00:50:41;;;;;;;8.50;7.60;;;2.30;1.00;2.60;100763.00;;;;5101938;28;20453;-81
2022/04/03 00:53:09;;;;;;;8.00;7.20;;;2.30;1.00;2.60;100751.00;;;;5101049;28;20459;-81
2022/04/03 00:55:43;;;;;;;7.73;6.83;;;2.30;1.00;2.50;100762.00;;;;5099643;28;20528;-81
2022/04/03 00:58:12;;;;;;;8.97;6.77;;;2.30;1.00;2.50;100752.00;;;;5098931;28;20450;-81
2022/04/03 01:00:41;;;;;;;9.13;6.70;;;2.20;1.00;2.50;100742.00;;;;5102512;28;20449;-81
2022/04/03 01:03:10;;;;;;;7.90;6.37;;;2.10;1.00;2.50;100767.00;;;;5105001;28;20480;-81
2022/04/03 01:05:38;;;;;;;7.90;6.50;;;2.20;1.00;2.40;100748.00;;;;5101791;28;20485;-82
2022/04/03 01:08:08;;;;;;;6.80;6.20;;;2.20;1.00;2.50;100767.00;;;;5101457;28;20438;-81
2022/04/03 01:10:36;;;;;;;8.40;6.27;;;2.20;1.00;2.60;100752.00;;;;5103902;28;20923;-81
2022/04/03 01:13:06;;;;;;;7.20;6.30;;;2.20;1.00;2.60;100767.00;;;;5102552;28;20445;-81
2022/04/03 01:15:39;;;;;;;8.43;6.90;;;2.30;1.00;2.60;100747.00;;;;5102861;28;20465;-81
2022/04/03 01:18:08;;;;;;;7.07;6.13;;;2.30;1.00;2.60;100763.00;;;;5101323;28;20920;-81
2022/04/03 01:20:37;;;;;;;7.90;5.70;;;2.30;1.00;2.40;100753.00;;;;5102996;28;20458;-81
2022/04/03 01:23:05;;;;;;;8.60;6.90;;;2.20;1.00;2.50;100759.00;;;;5100779;28;20547;-81
2022/04/03 01:25:35;;;;;;;7.73;6.30;;;2.20;1.00;2.40;100762.00;;;;5103351;28;20477;-81
2022/04/03 01:28:03;;;;;;;7.40;6.60;;;2.10;1.00;2.30;100772.00;;;;5105081;27;20525;-81
2022/04/03 01:30:32;;;;;;;7.57;6.50;;;2.00;1.00;2.30;100763.00;;;;5104184;28;20486;-81
2022/04/03 01:33:00;;;;;;;6.90;6.20;;;2.00;1.00;2.20;100771.00;;;;5102033;28;20465;-81
2022/04/03 01:35:29;;;;;;;7.00;5.93;;;1.90;1.00;2.20;100769.00;;;;5106913;28;20460;-80
2022/04/03 01:37:58;;;;;;;10.37;7.37;;;1.90;1.00;2.20;100772.00;;;;5106995;28;20476;-80
2022/04/03 01:40:26;;;;;;;8.77;7.03;;;1.80;1.00;2.10;100769.00;;;;5112237;28;20456;-80
2022/04/03 01:42:56;;;;;;;7.30;6.60;;;1.80;1.00;2.00;100764.00;;;;5113109;28;20484;-80
2022/04/03 01:45:24;;;;;;;9.50;6.30;;;1.70;1.00;2.10;100771.00;;;;5112615;28;20504;-79
2022/04/03 01:47:53;;;;;;;7.10;6.40;;;1.70;1.00;1.90;100790.00;;;;5112687;28;20492;-81
2022/04/03 01:50:29;;;;;;;8.03;6.90;;;1.70;1.00;1.90;100765.00;;;;5118913;28;20454;-80
2022/04/03 01:52:58;;;;;;;8.20;5.90;;;1.60;1.00;1.90;100775.00;;;;5121419;28;20437;-81
2022/04/03 01:55:26;;;;;;;7.43;6.67;;;1.60;1.00;1.90;100781.00;;;;5129070;28;20453;-81
2022/04/03 01:57:56;;;;;;;7.20;6.57;;;1.60;1.00;2.00;100782.00;;;;5123501;28;20434;-81
2022/04/03 02:00:26;;;;;;;8.20;7.07;;;1.60;1.00;1.90;100782.00;;;;5119863;28;20529;-82
2022/04/03 02:02:54;;;;;;;6.93;6.07;;;1.60;1.00;1.90;100783.00;;;;5125976;28;20489;-83
2022/04/03 02:05:23;;;;;;;8.93;6.97;;;1.60;1.00;1.70;100780.00;;;;5121147;28;20452;-83
2022/04/03 02:07:51;;;;;;;7.97;6.40;;;1.50;1.00;1.70;100786.00;;;;5118240;27;20540;-83
2022/04/03 02:10:20;;;;;;;9.33;7.27;;;1.40;1.00;1.80;100790.00;;;;5113639;28;20458;-84
2022/04/03 02:12:48;;;;;;;7.30;6.60;;;1.40;1.00;1.80;100759.00;;;;5108926;28;20461;-81
2022/04/03 02:15:18;;;;;;;7.57;6.37;;;1.40;1.00;1.60;100773.00;;;;5107217;28;20561;-81
2022/04/03 02:17:46;;;;;;;7.20;6.33;;;1.40;1.00;1.60;100778.00;;;;5102343;28;20460;-81
2022/04/03 02:20:15;;;;;;;7.23;6.00;;;1.30;1.00;1.60;100772.00;;;;5099866;28;20468;-81
2022/04/03 02:22:43;;;;;;;7.13;5.40;;;1.20;1.00;1.50;100751.00;;;;5099890;28;20446;-81
2022/04/03 02:25:13;;;;;;;7.30;6.30;;;1.30;1.00;1.70;100770.00;;;;5099003;28;20475;-81
2022/04/03 02:27:45;;;;;;;6.03;5.07;;;1.30;1.00;1.60;100796.00;;;;5098404;28;20986;-81
2022/04/03 02:30:14;;;;;;;6.57;5.60;;;1.30;1.00;1.60;100772.00;;;;5095543;28;20457;-81
2022/04/03 02:32:46;;;;;;;6.73;5.57;;;1.20;1.00;1.50;100775.00;;;;5101757;28;20950;-82
2022/04/03 02:35:15;;;;;;;5.90;4.60;;;1.20;1.00;1.60;100787.00;;;;5094755;28;20719;-80
2022/04/03 02:37:44;;;;;;;6.17;5.00;;;1.20;1.00;1.60;100779.00;;;;5097176;28;20469;-82
2022/04/03 02:40:14;;;;;;;6.40;4.53;;;1.30;1.00;1.70;100786.00;;;;5099301;28;20458;-82
2022/04/03 02:42:44;;;;;;;6.83;5.27;;;1.30;1.00;1.60;100783.00;;;;5102817;28;20446;-83
2022/04/03 02:45:13;;;;;;;6.17;4.77;;;1.30;1.00;1.50;100788.00;;;;5099144;28;20457;-83
2022/04/03 02:47:50;;;;;;;5.30;4.80;;;1.30;1.00;1.50;100788.00;;;;5103937;28;20461;-82
2022/04/03 02:50:20;;;;;;;6.27;4.80;;;1.20;1.00;1.50;100800.00;;;;5106238;28;20468;-83
2022/04/03 02:52:49;;;;;;;4.97;4.47;;;1.20;1.00;1.40;100781.00;;;;5102358;28;20453;-82
2022/04/03 02:55:18;;;;;;;5.80;4.43;;;1.10;1.00;1.40;100793.00;;;;5095353;28;20473;-82
2022/04/03 02:57:46;;;;;;;5.07;4.57;;;1.00;1.00;1.50;100782.00;;;;5096699;28;20480;-82
2022/04/03 03:00:17;;;;;;;4.97;4.40;;;1.10;1.00;1.60;100791.00;;;;5095602;28;20445;-82
2022/04/03 03:02:48;;;;;;;4.40;4.00;;;1.20;1.00;1.50;100790.00;;;;5094614;28;21154;-82
2022/04/03 03:05:18;;;;;;;5.23;4.67;;;1.30;1.00;1.50;100780.00;;;;5093511;28;20510;-83
2022/04/03 03:07:46;;;;;;;7.40;4.70;;;1.20;1.00;1.50;100792.00;;;;5095955;28;20939;-82
2022/04/03 03:10:17;;;;;;;6.80;4.70;;;1.40;1.00;1.40;100778.00;;;;5100389;28;20813;-81
2022/04/03 03:12:46;;;;;;;5.20;4.70;;;1.10;1.00;1.40;100799.00;;;;5101387;28;20458;-80
2022/04/03 03:15:15;;;;;;;5.07;4.20;;;1.10;1.00;1.30;100782.00;;;;5095356;28;21053;-82
2022/04/03 03:17:45;;;;;;;6.33;4.17;;;1.00;1.00;1.30;100795.00;;;;5096371;28;20472;-81
2022/04/03 03:20:22;;;;;;;5.67;4.60;;;1.00;1.00;1.30;100797.00;;;;5111607;28;20507;-82
2022/04/03 03:22:50;;;;;;;6.10;4.80;;;1.00;1.00;1.40;100786.00;;;;5094410;28;22459;-82
2022/04/03 03:25:19;;;;;;;7.43;4.50;;;1.00;1.00;1.30;100790.00;;;;5095626;28;20556;-82
2022/04/03 03:27:47;;;;;;;4.90;4.13;;;1.00;1.00;1.20;100782.00;;;;5095959;28;20461;-81
2022/04/03 03:30:16;;;;;;;4.70;4.20;;;0.90;1.00;1.20;100791.00;;;;5095208;28;20448;-81
2022/04/03 03:32:45;;;;;;;5.07;4.50;;;0.90;1.00;1.20;100785.00;;;;5096550;28;20446;-82
2022/04/03 03:35:13;;;;;;;7.10;4.30;;;0.90;1.00;1.20;100784.00;;;;5095640;28;20833;-82
2022/04/03 03:37:44;;;;;;;5.70;5.00;;;0.90;1.00;1.30;100790.00;;;;5097544;28;20453;-82
2022/04/03 03:40:14;;;;;;;5.33;4.57;;;1.00;1.00;1.20;100781.00;;;;5104073;28;20454;-82
2022/04/03 03:42:43;;;;;;;5.43;4.40;;;0.90;1.00;1.10;100802.00;;;;5112301;28;20454;-81
2022/04/03 03:45:14;;;;;;;6.23;4.30;;;0.80;1.00;1.20;100796.00;;;;5110094;28;20478;-80
2022/04/03 03:47:45;;;;;;;4.97;4.47;;;0.90;1.00;1.20;100784.00;;;;5111954;28;20945;-81
2022/04/03 03:50:15;;;;;;;9.13;4.60;;;0.90;1.00;1.10;100795.00;;;;5105219;28;20481;-80
2022/04/03 03:52:45;;;;;;;4.97;4.57;;;0.80;1.00;1.20;100793.00;;;;5108878;28;20483;-82
2022/04/03 03:55:13;;;;;;;6.77;4.73;;;0.90;1.00;1.20;100800.00;;;;5107931;28;20450;-82
2022/04/03 03:57:45;;;;;;;5.83;4.50;;;0.90;1.00;1.20;100815.00;;;;5107153;28;20458;-81
2022/04/03 04:00:14;;;;;;;4.90;3.97;;;0.90;1.00;1.20;100802.00;;;;5108832;28;20458;-81
2022/04/03 04:02:43;;;;;;;5.50;4.30;;;0.90;1.00;1.20;100802.00;;;;5120117;28;20481;-81
2022/04/03 04:05:11;;;;;;;5.87;4.20;;;0.90;1.00;1.20;100814.00;;;;5117648;28;20477;-81
2022/04/03 04:07:41;;;;;;;5.03;4.47;;;1.10;1.00;1.10;100814.00;;;;5118489;28;20452;-81
2022/04/03 04:10:12;;;;;;;5.33;4.17;;;0.80;1.00;1.10;100834.00;;;;5105408;28;20459;-80
2022/04/03 04:12:41;;;;;;;4.10;3.70;;;0.80;1.00;1.20;100820.00;;;;5098499;28;20442;-80
2022/04/03 04:15:11;;;;;;;5.13;4.13;;;0.80;1.00;1.10;100813.00;;;;5099616;28;20453;-80
2022/04/03 04:17:41;;;;;;;5.37;4.60;;;0.80;1.00;1.10;100839.00;;;;5096223;28;20461;-80
2022/04/03 04:20:12;;;;;;;5.37;4.23;;;0.80;1.00;1.10;100820.00;;;;5102988;28;20450;-81
2022/04/03 04:22:41;;;;;;;3.93;3.50;;;0.80;1.00;0.90;100822.00;;;;5106622;28;21172;-81
2022/04/03 04:25:13;;;;;;;5.20;3.90;;;0.70;1.00;1.00;100836.00;;;;5104596;28;20511;-80
2022/04/03 04:27:42;;;;;;;4.33;3.93;;;0.60;1.00;1.00;100850.00;;;;5106017;28;20524;-81
2022/04/03 04:30:11;;;;;;;5.00;4.30;;;0.60;1.00;1.00;100845.00;;;;5105781;28;20873;-81
2022/04/03 04:32:39;;;;;;;6.53;4.00;;;0.70;1.00;0.90;100845.00;;;;5108137;28;20785;-81
2022/04/03 04:35:09;;;;;;;4.80;3.83;;;0.60;1.00;0.90;100838.00;;;;5109451;28;20452;-80
2022/04/03 04:37:37;;;;;;;4.13;3.73;;;0.60;1.00;0.90;100836.00;;;;5108545;28;20500;-80
2022/04/03 04:40:07;;;;;;;4.60;4.10;;;0.50;1.00;0.80;100844.00;;;;5106207;28;20541;-79
2022/04/03 04:42:37;;;;;;;4.80;3.73;;;0.50;1.00;0.90;100850.00;;;;5098497;28;20472;-80
2022/04/03 04:45:09;;;;;;;7.07;4.10;;;0.50;1.00;0.80;100835.00;;;;5101559;28;20477;-81
2022/04/03 04:47:45;;;;;;;5.00;3.57;;;0.50;1.00;0.90;100846.00;;;;5100003;28;20446;-81
2022/04/03 04:50:15;;;;;;;4.10;3.33;;;0.50;1.00;0.90;100843.00;;;;5101519;28;20454;-81
2022/04/03 04:52:45;;;;;;;3.67;3.17;;;0.50;1.00;0.80;100854.00;;;;5099438;28;20442;-81
2022/04/03 04:55:13;;;;;;;4.10;3.30;;;0.50;1.00;0.80;100850.00;;;;5100247;28;20456;-81
2022/04/03 04:57:49;;;;;;;4.60;3.30;;;0.50;1.00;0.80;100857.00;;;;5101303;28;20454;-81
2022/04/03 05:00:20;;;;;;;5.90;3.60;;;0.50;1.00;0.80;100866.00;;;;5097569;28;20449;-82
2022/04/03 05:02:48;;;;;;;5.60;3.70;;;0.40;1.00;0.90;100858.00;;;;5100635;28;20437;-80
2022/04/03 05:05:18;;;;;;;4.63;3.07;;;0.50;1.00;0.90;100865.00;;;;5098743;28;20465;-78
2022/04/03 05:07:50;;;;;;;5.20;2.90;;;0.50;1.00;0.80;100868.00;;;;5098219;28;20446;-78
2022/04/03 05:10:19;;;;;;;6.83;3.23;;;0.50;1.00;1.00;100856.00;;;;5098806;28;20453;-80
2022/04/03 05:12:48;;;;;;;4.90;3.00;;;0.60;1.00;0.90;100858.00;;;;5104957;28;20445;-80
2022/04/03 05:15:18;;;;;;;3.77;3.10;;;0.60;1.00;0.80;100872.00;;;;5106249;28;20905;-82
2022/04/03 05:17:47;;;;;;;4.83;3.50;;;0.50;1.00;1.00;100874.00;;;;5107030;28;20450;-80
2022/04/03 05:20:17;;;;;;;4.00;3.00;;;0.60;1.00;0.80;100859.00;;;;5107739;28;20603;-79
2022/04/03 05:22:45;;;;;;;6.10;3.13;;;0.80;1.00;0.90;100862.00;;;;5107670;28;21017;-81
2022/04/03 05:25:14;;;;;;;3.00;2.57;;;0.60;1.00;0.90;100885.00;;;;5107678;28;20465;-80
2022/04/03 05:27:44;;;;;;;3.90;2.90;;;0.60;1.00;0.90;100877.00;;;;5109358;28;20521;-82
2022/04/03 05:30:15;;;;;;;4.50;3.20;;;0.60;1.00;1.10;100889.00;;;;5119629;27;20441;-80
2022/04/03 05:32:43;;;;;;;4.37;2.90;;;0.70;1.00;1.10;100890.00;;;;5104630;28;20472;-81
2022/04/03 05:35:13;;;;;;;4.50;3.13;;;0.80;1.00;1.20;100891.00;;;;5100557;28;20461;-79
2022/04/03 05:37:44;;;;;;;4.20;3.07;;;0.80;1.00;1.20;100891.00;;;;5101723;28;20472;-80
2022/04/03 05:40:15;;;;;;;4.00;3.03;;;0.80;1.00;1.10;100883.00;;;;5111338;28;20521;-82
2022/04/03 05:42:44;;;;;;;3.87;2.80;;;0.80;1.00;1.30;100892.00;;;;5115949;28;20431;-82
2022/04/03 05:45:14;;;;;;;3.60;2.40;;;0.90;1.00;1.40;100894.00;;;;5113032;28;20569;-81
2022/04/03 05:47:42;;;;;;;4.40;2.80;;;1.10;1.00;1.60;100905.00;;;;5104476;28;20467;-80
2022/04/03 05:50:14;;;;;;;4.83;2.90;;;1.10;1.00;1.70;100898.00;;;;5099469;28;20537;-82
2022/04/03 05:52:47;;;;;;;4.93;3.10;;;1.30;1.00;1.80;100902.00;;;;5117209;27;20450;-81
2022/04/03 05:55:19;;;;;;;4.63;3.03;;;1.40;1.00;2.00;100904.00;;;;5101109;28;20808;-82
2022/04/03 05:57:50;;;;;;;3.63;2.53;;;1.50;1.00;2.10;100890.00;;;;5103140;28;20456;-80
2022/04/03 06:00:22;;;;;;;3.07;2.70;;;1.70;1.00;2.20;100899.00;;;;5086520;28;20441;-80
2022/04/03 06:02:52;;;;;;;3.80;2.40;;;2.20;1.00;2.10;100916.00;;;;5110408;28;20473;-83
2022/04/03 06:05:24;;;;;;;5.47;2.23;;;1.80;1.00;2.30;100914.00;;;;5119644;28;20573;-80
2022/04/03 06:07:58;;;;;;;3.50;2.60;;;1.90;1.00;2.50;100906.00;;;;5132707;28;20437;-82
2022/04/03 06:10:28;;;;;;;2.90;2.30;;;2.10;1.00;2.50;100907.00;;;;5126701;28;20438;-83
2022/04/03 06:12:58;;;;;;;3.30;2.40;;;2.20;1.00;2.50;100929.00;;;;5113738;28;20516;-82
2022/04/03 06:15:33;;;;;;;4.10;2.70;;;2.20;1.00;2.40;100906.00;;;;5107524;28;20465;-80
2022/04/03 06:18:01;;;;;;;6.03;2.80;;;2.20;1.00;2.40;100911.00;;;;5105229;28;20437;-82
2022/04/03 06:20:30;;;;;;;3.37;2.33;;;2.20;1.00;2.50;100930.00;;;;5106703;28;20474;-80
2022/04/03 06:22:59;;;;;;;4.27;2.10;;;2.20;1.00;2.50;100916.00;;;;5106630;28;20438;-79
2022/04/03 06:25:28;;;;;;;4.20;2.60;;;2.20;1.00;2.50;100937.00;;;;5109268;28;20508;-83
2022/04/03 06:27:56;;;;;;;2.90;2.50;;;2.20;1.00;2.60;100943.00;;;;5116275;28;20451;-81
2022/04/03 06:30:25;;;;;;;3.27;2.40;;;2.20;1.00;2.70;100935.00;;;;5117733;28;20442;-82
2022/04/03 06:32:55;;;;;;;3.97;2.20;;;2.20;1.00;2.70;100955.00;;;;5114794;27;20455;-81
2022/04/03 06:35:23;;;;;;;3.03;2.60;;;2.20;1.00;2.60;100939.00;;;;5114783;28;20529;-78
2022/04/03 06:37:52;;;;;;;4.00;2.53;;;2.20;1.00;2.70;100942.00;;;;5115724;28;20442;-82
2022/04/03 06:40:20;;;;;;;3.30;2.73;;;2.30;1.00;2.80;100938.00;;;;5114263;28;20524;-82
2022/04/03 06:42:49;;;;;;;4.87;3.13;;;2.40;1.00;2.80;100924.00;;;;5110117;28;20970;-81
2022/04/03 06:45:18;;;;;;;4.10;2.60;;;2.50;1.00;2.90;100935.00;;;;5106714;28;20477;-80
2022/04/03 06:47:46;;;;;;;3.70;2.57;;;2.50;1.00;3.00;100938.00;;;;5097979;28;20477;-80
2022/04/03 06:50:16;;;;;;;4.40;3.10;;;2.60;1.00;2.90;100948.00;;;;5104925;28;20640;-81
2022/04/03 06:52:46;;;;;;;3.13;2.43;;;2.60;1.00;3.00;100953.00;;;;5111623;28;20454;-80
2022/04/03 06:55:14;;;;;;;4.63;2.33;;;2.70;1.00;3.10;100944.00;;;;5103791;28;20934;-82
2022/04/03 06:57:43;;;;;;;3.23;2.53;;;2.80;1.00;3.10;100945.00;;;;5099262;28;20460;-80
2022/04/03 07:00:13;;;;;;;2.70;2.20;;;2.70;1.00;3.00;100942.00;;;;5084530;28;21030;-81
2022/04/03 07:02:41;;;;;;;4.33;2.30;;;2.70;1.00;3.10;100946.00;;;;5102933;28;20446;-80
2022/04/03 07:05:10;;;;;;;4.60;2.30;;;2.70;1.00;3.30;100959.00;;;;5110466;28;20461;-81
2022/04/03 07:07:41;;;;;;;7.10;2.50;;;2.90;1.00;3.20;100965.00;;;;5114656;28;20526;-79
2022/04/03 07:10:13;;;;;;;4.27;2.57;;;2.90;1.00;3.00;100959.00;;;;5107040;28;20463;-80
2022/04/03 07:12:41;;;;;;;5.07;2.80;;;2.80;1.00;3.00;100971.00;;;;5101826;28;20472;-81
2022/04/03 07:15:12;;;;;;;6.13;2.70;;;2.70;1.00;3.00;100966.00;;;;5095465;28;20603;-82
2022/04/03 07:17:44;;;;;;;4.80;2.40;;;2.70;1.00;3.30;100974.00;;;;5099715;28;20438;-81
2022/04/03 07:20:13;;;;;;;3.07;2.40;;;2.90;1.00;3.50;100964.00;;;;5096339;28;20456;-81
2022/04/03 07:22:56;;;;;;;3.00;2.17;;;3.10;1.00;3.60;100961.00;;;;5099882;28;20464;-82
2022/04/03 07:25:24;;;;;;;4.33;2.47;;;3.20;1.00;3.60;100978.00;;;;5099692;28;20816;-80
2022/04/03 07:27:53;;;;;;;7.30;3.17;;;3.30;1.00;3.60;100982.00;;;;5103396;28;20962;-81
2022/04/03 07:30:22;;;;;;;3.37;2.57;;;3.40;1.00;3.60;100968.00;;;;5121236;28;20441;-84
2022/04/03 07:32:50;;;;;;;3.93;2.17;;;3.30;1.00;3.60;100988.00;;;;5101034;28;20449;-83
2022/04/03 07:35:18;;;;;;;3.60;2.20;;;3.20;1.00;3.70;100979.00;;;;5096872;28;20463;-83
2022/04/03 07:37:48;;;;;;;3.60;2.73;;;3.40;1.00;3.70;100987.00;;;;5098413;28;20453;-82
2022/04/03 07:40:16;;;;;;;3.60;2.00;;;3.30;1.00;3.50;100992.00;;;;5097865;28;20460;-81
2022/04/03 07:42:58;;;;;;;2.97;2.33;;;3.20;1.00;3.70;100986.00;;;;5096809;28;20445;-83
2022/04/03 07:45:27;;;;;;;3.33;2.37;;;3.30;1.00;3.60;100988.00;;;;5098040;28;20456;-81
2022/04/03 07:47:55;;;;;;;3.73;2.33;;;3.30;1.00;3.80;101011.00;;;;5098151;28;20459;-82
2022/04/03 07:50:23;;;;;;;4.07;2.43;;;3.40;1.00;3.80;101004.00;;;;5097855;28;21010;-82
2022/04/03 07:52:53;;;;;;;4.47;2.20;;;3.50;1.00;3.80;101004.00;;;;5096585;28;20458;-81
2022/04/03 07:55:22;;;;;;;4.10;2.50;;;3.60;1.00;3.80;101014.00;;;;5101494;28;20520;-82
2022/04/03 07:57:50;;;;;;;3.00;2.13;;;3.50;1.00;3.90;100999.00;;;;5101510;28;20454;-82
2022/04/03 08:00:19;;;;;;;2.30;2.00;;;3.50;1.00;3.70;101005.00;;;;5095777;28;20462;-83
2022/04/03 08:02:47;;;;;;;3.73;2.40;;;3.40;1.00;3.90;101014.00;;;;5098812;28;20464;-83
2022/04/03 08:05:16;;;;;;;2.90;2.60;;;3.50;1.00;3.90;101001.00;;;;5095239;28;20465;-84
2022/04/03 08:07:49;;;;;;;3.70;2.57;;;3.60;1.00;4.20;101007.00;;;;5096791;28;21395;-80
2022/04/03 08:10:20;;;;;;;3.53;2.73;;;3.80;1.00;4.30;101013.00;;;;5103021;28;20536;-84
2022/04/03 08:12:50;;;;;;;2.87;2.60;;;4.00;1.00;4.40;101012.00;;;;5105120;28;20457;-80
2022/04/03 08:15:20;;;;;;;3.90;2.67;;;4.10;1.00;4.50;101016.00;;;;5106291;28;21086;-79
2022/04/03 08:17:49;;;;;;;4.13;2.73;;;4.30;1.00;4.40;101013.00;;;;5102322;28;20459;-85
2022/04/03 08:20:18;;;;;;;4.80;2.23;;;4.20;1.00;4.20;101016.00;;;;5095557;28;20464;-82
2022/04/03 08:22:49;;;;;;;2.77;2.40;;;4.00;1.00;4.40;101006.00;;;;5122514;28;20417;-80
2022/04/03 08:25:19;;;;;;;2.53;2.17;;;4.10;1.00;4.40;101015.00;;;;5128458;28;20531;-79
2022/04/03 08:27:50;;;;;;;3.60;2.47;;;4.20;1.00;4.40;100999.00;;;;5120026;28;20499;-80
2022/04/03 08:30:22;;;;;;;3.00;2.40;;;4.20;1.00;4.60;101031.00;;;;5126561;27;20465;-83
2022/04/03 08:32:51;;;;;;;4.13;2.67;;;4.30;1.00;4.70;101018.00;;;;5121986;27;20458;-83
2022/04/03 08:35:22;;;;;;;4.87;2.87;;;4.40;1.00;4.70;101020.00;;;;5104128;28;20483;-82
2022/04/03 08:37:51;;;;;;;4.93;3.73;;;4.50;1.00;4.80;101013.00;;;;5105383;28;20536;-82
2022/04/03 08:40:22;;;;;;;3.30;2.47;;;4.50;1.00;4.90;101022.00;;;;5100642;28;20455;-81
2022/04/03 08:42:52;;;;;;;4.10;3.00;;;4.60;1.00;5.00;101020.00;;;;5099842;28;20445;-82
2022/04/03 08:45:21;;;;;;;2.30;1.90;;;4.70;1.00;5.10;101019.00;;;;5104369;28;20445;-81
2022/04/03 08:47:52;;;;;;;3.70;2.43;;;4.80;1.00;5.20;101038.00;;;;5105720;28;20466;-82
2022/04/03 08:50:25;;;;;;;2.83;2.10;;;4.90;1.00;5.20;101040.00;;;;5099213;28;20481;-82
2022/04/03 08:52:56;;;;;;;2.57;2.10;;;5.00;1.00;5.10;101041.00;;;;5105125;28;20438;-80
2022/04/03 08:55:26;;;;;;;4.13;2.23;;;4.90;1.00;5.10;101035.00;;;;5102151;28;20461;-84
2022/04/03 08:57:55;;;;;;;3.97;2.60;;;4.90;1.00;5.10;101037.00;;;;5107443;28;20480;-82
2022/04/03 09:00:23;;;;;;;4.37;2.00;;;4.90;1.00;5.20;101027.00;;;;5110634;28;20453;-82
2022/04/03 09:02:52;;;;;;;2.60;2.20;;;4.90;1.00;5.20;101030.00;;;;5109551;28;20516;-84
2022/04/03 09:05:21;;;;;;;2.57;1.67;;;5.00;1.00;5.30;101036.00;;;;5108280;28;21041;-82
2022/04/03 09:08:03;;;;;;;3.47;1.87;;;5.00;1.00;5.40;101035.00;;;;5109614;28;20470;-81
2022/04/03 09:10:33;;;;;;;4.33;1.97;;;5.30;1.00;5.30;101044.00;;;;5113584;28;21191;-83
2022/04/03 09:13:02;;;;;;;6.23;2.10;;;5.20;1.00;5.40;101054.00;;;;5129844;27;20434;-85
2022/04/03 09:15:42;;;;;;;2.57;1.90;;;5.10;1.00;5.40;101044.00;;;;5121339;28;20488;-82
2022/04/03 09:18:48;;;;;;;2.27;1.80;;;5.10;1.00;5.40;101051.00;;;;5115648;28;20457;-83
2022/04/03 09:21:19;;;;;;;3.37;2.30;;;5.20;1.00;5.40;101045.00;;;;5124365;27;20456;-82
2022/04/03 09:24:03;;;;;;;3.40;2.60;;;5.10;1.00;5.60;101044.00;;;;5104817;28;21353;-81
2022/04/03 09:26:34;;;;;;;3.10;1.97;;;5.40;1.00;5.60;101041.00;;;;5103420;28;20463;-81
2022/04/03 09:29:14;;;;;;;2.10;1.70;;;5.50;1.00;5.40;101036.00;;;;5106180;28;20439;-81
2022/04/03 09:31:48;;;;;;;4.30;2.27;;;5.30;1.00;5.50;101040.00;;;;5107739;28;20420;-80
2022/04/03 09:34:18;;;;;;;3.53;2.27;;;5.30;1.00;5.50;101040.00;;;;5106791;28;20458;-80
2022/04/03 09:36:57;;;;;;;2.30;1.70;;;5.20;1.00;5.70;101049.00;;;;5101815;28;20477;-81
2022/04/03 09:39:28;;;;;;;3.60;2.10;;;5.40;1.00;5.60;101043.00;;;;5102895;28;20446;-80
2022/04/03 09:42:01;;;;;;;2.57;2.13;;;5.40;1.00;5.60;101042.00;;;;5100701;28;20449;-80
2022/04/03 09:44:33;;;;;;;2.80;2.27;;;5.60;1.00;5.90;101039.00;;;;5102019;28;20575;-82
2022/04/03 09:47:22;;;;;;;2.40;1.70;;;5.60;1.00;6.00;101047.00;;;;5099761;28;20906;-83
2022/04/03 09:49:57;;;;;;;1.83;1.53;;;5.80;1.00;6.30;101051.00;;;;5095604;28;20466;-82
2022/04/03 09:52:41;;;;;;;2.73;2.03;;;6.00;1.00;6.30;101048.00;;;;5112169;27;20563;-81
2022/04/03 09:55:16;;;;;;;2.87;2.00;;;6.40;1.00;6.40;101051.00;;;;5106841;28;20547;-80
2022/04/03 09:57:47;;;;;;;5.83;5.33;;;6.20;1.00;6.60;101056.00;;;;5119533;28;20450;-81
2022/04/03 10:00:40;;;;;;;2.97;1.80;;;6.30;1.00;6.30;101032.00;;;;5110178;28;20461;-81
2022/04/03 10:03:12;;;;;;;3.13;2.47;;;6.20;1.00;6.50;101045.00;;;;5095063;28;20446;-83
2022/04/03 10:05:42;;;;;;;3.27;2.03;;;6.30;1.00;6.50;101050.00;;;;5097276;28;20544;-80
2022/04/03 10:08:12;;;;;;;2.60;2.20;;;6.30;1.00;6.70;101058.00;;;;5089428;28;20478;-78
2022/04/03 10:10:41;;;;;;;2.70;2.40;;;6.50;1.00;6.80;101035.00;;;;5093107;28;20453;-79
2022/04/03 10:13:12;;;;;;;2.10;1.70;;;6.60;1.00;6.90;101032.00;;;;5089130;28;20477;-79
2022/04/03 10:15:40;;;;;;;1.90;1.60;;;6.70;1.00;7.00;101047.00;;;;5097464;28;20480;-80
2022/04/03 10:18:08;;;;;;;3.80;2.00;;;6.80;1.00;7.10;101042.00;;;;5098425;28;20506;-78
2022/04/03 10:20:38;;;;;;;2.07;1.87;;;6.90;1.00;6.80;101036.00;;;;5097655;28;20465;-80
2022/04/03 10:27:28;;;;;;;2.57;1.87;;;6.70;1.00;7.20;101040.00;;;;5079088;28;20486;-79
2022/04/03 10:30:01;;;;;;;3.17;2.37;;;6.90;1.00;7.30;101044.00;;;;5098707;28;20474;-78
2022/04/03 10:32:34;;;;;;;3.03;2.00;;;7.00;1.00;7.20;101022.00;;;;5103905;28;20442;-79
2022/04/03 10:35:12;;;;;;;3.20;2.10;;;7.00;1.00;7.00;101029.00;;;;5100875;28;20471;-80
2022/04/03 10:37:44;;;;;;;3.50;2.47;;;6.90;1.00;7.00;101032.00;;;;5100418;28;20522;-81
2022/04/03 10:40:15;;;;;;;3.60;2.40;;;6.90;1.00;7.10;101038.00;;;;5104641;28;20452;-78
2022/04/03 10:42:52;;;;;;;2.80;1.83;;;6.90;1.00;6.90;101036.00;;;;5126604;28;20465;-82
2022/04/03 10:45:27;;;;;;;2.47;1.73;;;6.80;1.00;6.90;101032.00;;;;5121654;28;20437;-81
2022/04/03 10:48:28;;;;;;;4.47;1.83;;;6.70;1.00;7.50;101015.00;;;;5122734;28;20453;-84
2022/04/03 10:51:03;;;;;;;5.10;2.30;;;7.20;1.00;7.80;101011.00;;;;5107832;28;20541;-81
2022/04/03 10:53:35;;;;;;;3.17;2.87;;;7.50;1.00;8.20;101025.00;;;;5103886;28;20446;-82
2022/04/03 10:56:09;;;;;;;3.13;2.20;;;7.90;1.00;8.50;101022.00;;;;5104921;28;20477;-79
2022/04/03 10:58:47;;;;;;;3.57;2.23;;;8.30;1.00;8.80;101011.00;;;;5098815;28;21132;-80
2022/04/03 11:01:28;;;;;;;2.90;2.33;;;8.60;1.00;9.10;101003.00;;;;5097353;28;20445;-84
2022/04/03 11:04:00;;;;;;;4.97;2.63;;;8.90;1.00;9.50;101019.00;;;;5101700;28;20447;-84
2022/04/03 11:06:37;;;;;;;3.00;2.23;;;9.40;1.00;9.60;101007.00;;;;5098210;28;20481;-84
2022/04/03 11:09:14;;;;;;;2.57;2.20;;;9.60;1.00;9.30;101008.00;;;;5098961;28;20476;-82
2022/04/03 11:11:53;;;;;;;2.63;2.37;;;9.50;1.00;9.10;101019.00;;;;5096282;28;21001;-82
2022/04/03 11:14:57;;;;;;;10.30;2.70;;;9.50;1.00;8.90;101012.00;;;;5117734;27;20538;-81
2022/04/03 11:17:54;;;;;;;3.10;2.30;;;9.00;1.00;8.80;100997.00;;;;5099878;28;20476;-84
2022/04/03 11:20:47;;;;;;;3.50;1.80;;;8.80;1.00;8.40;100994.00;;;;5096757;28;20449;-84
2022/04/03 11:23:17;;;;;;;2.80;2.27;;;8.40;1.00;8.40;101006.00;;;;5093250;28;20511;-81
2022/04/03 11:25:47;;;;;;;2.23;2.03;;;8.30;1.00;9.00;100997.00;;;;5091200;28;20560;-80
2022/04/03 11:28:16;;;;;;;2.73;2.20;;;9.00;1.00;9.20;101004.00;;;;5097994;28;20465;-79
2022/04/03 11:30:47;;;;;;;2.30;1.63;;;8.90;1.00;9.10;101008.00;;;;5094352;28;20458;-85